Time;durP1;ratioP1;P1;durP2;ratioP2;P2;SDS_P1;SDS_P2;PMS_P1;PMS_P2;Temp;Humidity;BMP_temperature;BMP_pressure;BME280_temperature;BME280_humidity;BME280_pressure;Samples;Min_cycle;Max_cycle;Signal;HPM_P1;HPM_P2
2021/04/02 00:02:12;;;;;;;15.53;7.47;;;;;5.70;102062.00;;;;9692991;30;20200;-78
2021/04/02 00:07:13;;;;;;;10.47;7.27;;;;;5.60;102066.00;;;;9678201;30;20291;-78
2021/04/02 00:12:16;;;;;;;11.87;7.27;;;;;5.60;102070.00;;;;9692833;30;20748;-78
2021/04/02 00:17:17;;;;;;;11.73;7.47;;;;;5.50;102073.00;;;;9677065;30;20211;-78
2021/04/02 00:22:19;;;;;;;16.03;7.87;;;;;5.40;102069.00;;;;9663869;30;20204;-78
2021/04/02 00:27:20;;;;;;;13.50;7.30;;;;;5.30;102068.00;;;;9684711;30;20228;-78
2021/04/02 00:32:21;;;;;;;14.63;7.83;;;;;5.20;102066.00;;;;9663432;30;20231;-78
2021/04/02 00:37:23;;;;;;;16.73;8.03;;;;;5.20;102073.00;;;;9690651;30;20207;-77
2021/04/02 00:42:31;;;;;;;13.47;8.10;;;;;5.10;102067.00;;;;9712103;30;20210;-77
2021/04/02 00:47:32;;;;;;;18.47;8.30;;;;;5.00;102065.00;;;;9697654;30;20227;-77
2021/04/02 00:52:33;;;;;;;14.10;9.13;;;;;5.00;102071.00;;;;9712369;30;20258;-78
2021/04/02 00:57:35;;;;;;;19.63;8.33;;;;;4.90;102069.00;;;;9697329;30;20711;-78
2021/04/02 01:02:38;;;;;;;12.70;8.67;;;;;4.80;102072.00;;;;9663221;30;20211;-78
2021/04/02 01:07:42;;;;;;;17.37;8.73;;;;;4.70;102065.00;;;;9649165;30;20213;-78
2021/04/02 01:12:45;;;;;;;18.47;9.23;;;;;4.70;102060.00;;;;9653397;30;20295;-78
2021/04/02 01:17:52;;;;;;;22.23;9.90;;;;;4.60;102061.00;;;;9699138;30;20219;-78
2021/04/02 01:22:59;;;;;;;15.03;9.20;;;;;4.60;102064.00;;;;9713618;30;20231;-78
2021/04/02 01:28:28;;;;;;;26.83;9.63;;;;;4.50;102056.00;;;;9697933;30;20259;-78
2021/04/02 01:33:31;;;;;;;18.17;10.27;;;;;4.40;102067.00;;;;9713216;30;20280;-78
2021/04/02 01:38:36;;;;;;;12.30;8.80;;;;;4.30;102065.00;;;;9668348;30;20238;-78
2021/04/02 01:43:50;;;;;;;22.83;10.20;;;;;4.30;102058.00;;;;9698134;30;20239;-78
2021/04/02 01:48:55;;;;;;;17.50;9.23;;;;;4.20;102060.00;;;;9683764;30;20223;-78
2021/04/02 01:53:59;;;;;;;19.93;10.40;;;;;4.20;102053.00;;;;9697904;30;20258;-78
2021/04/02 01:59:08;;;;;;;21.83;11.10;;;;;4.10;102060.00;;;;9682869;30;20741;-78
2021/04/02 02:04:11;;;;;;;17.53;10.67;;;;;4.00;102065.00;;;;9682639;30;20219;-78
2021/04/02 02:09:32;;;;;;;18.13;10.10;;;;;4.00;102070.00;;;;9696381;30;20212;-78
2021/04/02 02:14:41;;;;;;;17.40;10.47;;;;;3.90;102062.00;;;;9682131;30;20246;-78
2021/04/02 02:19:49;;;;;;;15.97;10.03;;;;;3.80;102067.00;;;;9696206;30;20198;-78
2021/04/02 02:24:52;;;;;;;20.40;11.53;;;;;3.80;102071.00;;;;9695486;30;20315;-78
2021/04/02 02:29:55;;;;;;;20.07;12.27;;;;;3.70;102058.00;;;;9682800;30;20224;-77
2021/04/02 02:34:58;;;;;;;22.50;11.00;;;;;3.70;102071.00;;;;9642277;30;20208;-78
2021/04/02 02:40:07;;;;;;;24.37;12.03;;;;;3.60;102069.00;;;;9642781;30;20216;-77
2021/04/02 02:45:11;;;;;;;23.20;11.83;;;;;3.60;102066.00;;;;9663693;30;20239;-77
2021/04/02 02:50:18;;;;;;;20.77;11.50;;;;;3.60;102078.00;;;;9677184;30;20224;-77
2021/04/02 02:55:23;;;;;;;21.07;11.77;;;;;3.50;102075.00;;;;9677275;30;20267;-78
2021/04/02 03:00:31;;;;;;;22.50;12.23;;;;;3.50;102076.00;;;;9702843;30;20204;-77
2021/04/02 03:05:37;;;;;;;24.70;11.43;;;;;3.40;102060.00;;;;9656132;30;20285;-78
2021/04/02 03:10:39;;;;;;;24.73;12.87;;;;;3.40;102052.00;;;;9671661;30;20227;-78
2021/04/02 03:15:42;;;;;;;23.27;12.57;;;;;3.30;102062.00;;;;9691131;30;20298;-78
2021/04/02 03:20:44;;;;;;;26.30;11.73;;;;;3.30;102054.00;;;;9676500;30;20212;-78
2021/04/02 03:25:48;;;;;;;21.23;12.17;;;;;3.30;102050.00;;;;9688021;30;20224;-78
2021/04/02 03:30:49;;;;;;;24.57;12.43;;;;;3.20;102053.00;;;;9655162;30;20220;-78
2021/04/02 03:36:01;;;;;;;22.40;12.90;;;;;3.30;102062.00;;;;9672484;30;20220;-78
2021/04/02 03:41:40;;;;;;;22.67;11.03;;;;;3.30;102060.00;;;;9704342;30;20542;-78
2021/04/02 03:46:44;;;;;;;28.40;12.57;;;;;3.30;102069.00;;;;9659570;30;20242;-79
2021/04/02 03:51:52;;;;;;;22.57;11.97;;;;;3.20;102075.00;;;;9679202;30;20227;-78
2021/04/02 03:56:58;;;;;;;23.90;11.90;;;;;3.20;102076.00;;;;9693408;30;20216;-78
2021/04/02 04:02:04;;;;;;;23.80;10.80;;;;;3.20;102079.00;;;;9706393;30;20206;-78
2021/04/02 04:07:08;;;;;;;21.90;10.37;;;;;3.10;102079.00;;;;9692543;30;20222;-78
2021/04/02 04:12:15;;;;;;;25.80;11.57;;;;;3.00;102083.00;;;;9671034;30;20693;-78
2021/04/02 04:17:33;;;;;;;18.30;10.90;;;;;2.90;102085.00;;;;9642624;30;20349;-78
2021/04/02 04:22:42;;;;;;;18.60;10.13;;;;;2.90;102087.00;;;;9628505;30;20201;-78
2021/04/02 04:27:44;;;;;;;19.10;11.20;;;;;2.90;102081.00;;;;9696673;30;20231;-78
2021/04/02 04:32:45;;;;;;;19.07;11.40;;;;;2.80;102087.00;;;;9706455;30;20234;-78
2021/04/02 04:37:49;;;;;;;19.60;10.17;;;;;2.80;102087.00;;;;9693015;30;20199;-78
2021/04/02 04:42:50;;;;;;;21.30;11.40;;;;;2.80;102091.00;;;;9678257;30;20204;-78
2021/04/02 04:47:53;;;;;;;22.67;11.17;;;;;2.80;102092.00;;;;9707454;30;20211;-78
2021/04/02 04:53:07;;;;;;;23.63;11.23;;;;;2.80;102099.00;;;;9677642;30;20247;-78
2021/04/02 04:58:11;;;;;;;24.10;11.00;;;;;2.90;102106.00;;;;9664261;30;20219;-78
2021/04/02 05:03:18;;;;;;;20.17;10.37;;;;;3.00;102107.00;;;;9692560;30;20215;-78
2021/04/02 05:08:25;;;;;;;21.07;10.23;;;;;3.00;102112.00;;;;9678013;30;20227;-78
2021/04/02 05:13:30;;;;;;;22.27;9.13;;;;;3.10;102118.00;;;;9666934;30;20212;-78
2021/04/02 05:18:34;;;;;;;20.83;10.30;;;;;3.20;102111.00;;;;9684962;30;20208;-78
2021/04/02 05:23:35;;;;;;;23.10;9.83;;;;;3.10;102116.00;;;;9699018;30;20212;-78
2021/04/02 05:28:36;;;;;;;17.33;9.13;;;;;3.10;102117.00;;;;9685034;30;20290;-78
2021/04/02 05:33:38;;;;;;;15.03;8.63;;;;;3.00;102112.00;;;;9699829;30;20207;-78
2021/04/02 05:38:39;;;;;;;20.33;9.00;;;;;3.10;102114.00;;;;9684449;30;20210;-78
2021/04/02 05:43:46;;;;;;;15.47;8.90;;;;;3.20;102117.00;;;;9684931;30;20211;-78
2021/04/02 05:48:58;;;;;;;30.43;15.17;;;;;3.40;102133.00;;;;9713404;30;20224;-78
2021/04/02 05:53:59;;;;;;;17.80;10.07;;;;;3.40;102132.00;;;;9698616;30;20215;-78
2021/04/02 05:59:02;;;;;;;16.33;8.67;;;;;3.60;102138.00;;;;9698841;30;20605;-78
2021/04/02 06:04:04;;;;;;;13.07;8.03;;;;;3.80;102146.00;;;;9697486;30;20237;-78
2021/04/02 06:09:07;;;;;;;21.00;9.50;;;;;4.10;102138.00;;;;9676509;30;20251;-78
2021/04/02 06:14:09;;;;;;;15.70;7.93;;;;;4.30;102138.00;;;;9662126;30;20244;-78
2021/04/02 06:19:10;;;;;;;15.87;7.70;;;;;4.60;102136.00;;;;9698074;30;20208;-78
2021/04/02 06:24:14;;;;;;;12.17;7.03;;;;;4.80;102143.00;;;;9660257;30;20220;-78
2021/04/02 06:29:17;;;;;;;15.27;7.30;;;;;4.90;102151.00;;;;9664576;30;20251;-78
2021/04/02 06:34:20;;;;;;;14.47;6.33;;;;;5.10;102145.00;;;;9711540;30;20204;-78
2021/04/02 06:39:21;;;;;;;14.60;5.63;;;;;5.30;102159.00;;;;9696774;30;20662;-78
2021/04/02 06:44:24;;;;;;;10.07;5.70;;;;;5.50;102164.00;;;;9697754;30;20208;-78
2021/04/02 06:49:26;;;;;;;10.63;6.07;;;;;5.60;102157.00;;;;9682775;30;20641;-78
2021/04/02 06:54:28;;;;;;;9.07;5.87;;;;;5.80;102161.00;;;;9696544;30;20207;-78
2021/04/02 06:59:34;;;;;;;11.37;6.03;;;;;6.00;102163.00;;;;9684847;30;20234;-78
2021/04/02 07:04:38;;;;;;;13.20;6.67;;;;;6.20;102164.00;;;;9682348;30;20278;-78
2021/04/02 07:09:41;;;;;;;10.20;5.40;;;;;6.30;102165.00;;;;9695923;30;20223;-78
2021/04/02 07:14:42;;;;;;;11.77;5.23;;;;;6.50;102163.00;;;;9681969;30;20220;-78
2021/04/02 07:19:44;;;;;;;9.83;5.87;;;;;6.60;102170.00;;;;9696958;30;20216;-78
2021/04/02 07:24:47;;;;;;;16.57;5.87;;;;;6.90;102162.00;;;;9654721;30;20236;-78
2021/04/02 07:29:48;;;;;;;13.83;5.90;;;;;7.10;102164.00;;;;9664830;30;20224;-78
2021/04/02 07:34:50;;;;;;;11.90;5.50;;;;;7.30;102169.00;;;;9692796;30;20246;-78
2021/04/02 07:39:55;;;;;;;12.97;5.83;;;;;7.50;102172.00;;;;9693476;30;20282;-78
2021/04/02 07:44:56;;;;;;;11.37;5.40;;;;;7.90;102162.00;;;;9665116;30;20249;-78
2021/04/02 07:50:01;;;;;;;15.37;5.80;;;;;8.00;102170.00;;;;9695711;30;20599;-78
2021/04/02 07:55:08;;;;;;;9.80;4.77;;;;;8.10;102171.00;;;;9694691;30;20196;-78
2021/04/02 08:00:10;;;;;;;11.20;5.27;;;;;8.20;102162.00;;;;9686949;30;20208;-77
2021/04/02 08:05:15;;;;;;;9.93;4.77;;;;;8.40;102165.00;;;;9694762;30;20227;-78
2021/04/02 08:10:19;;;;;;;19.40;5.23;;;;;8.50;102175.00;;;;9694838;30;20274;-78
2021/04/02 08:15:21;;;;;;;11.00;4.80;;;;;8.60;102170.00;;;;9692410;30;20214;-78
2021/04/02 08:20:23;;;;;;;10.37;4.50;;;;;8.80;102177.00;;;;9693025;30;20669;-78
2021/04/02 08:25:24;;;;;;;8.87;3.87;;;;;8.00;102190.00;;;;9694678;30;20648;-78
2021/04/02 08:30:26;;;;;;;8.40;4.40;;;;;7.60;102198.00;;;;9708344;30;20219;-78
2021/04/02 08:35:28;;;;;;;15.13;4.20;;;;;7.40;102191.00;;;;9670414;30;20267;-78
2021/04/02 08:40:35;;;;;;;13.80;4.40;;;;;7.60;102196.00;;;;9698159;30;20204;-78
2021/04/02 08:45:38;;;;;;;13.67;4.40;;;;;8.40;102189.00;;;;9666335;30;20744;-78
2021/04/02 08:50:47;;;;;;;8.37;3.87;;;;;8.90;102193.00;;;;9674291;30;20571;-78
2021/04/02 08:55:48;;;;;;;6.23;3.40;;;;;9.30;102202.00;;;;9685867;30;20204;-78
2021/04/02 09:00:50;;;;;;;14.73;3.40;;;;;10.10;102198.00;;;;9674557;30;20273;-78
2021/04/02 09:05:51;;;;;;;6.67;2.80;;;;;10.20;102197.00;;;;9687816;30;20215;-78
2021/04/02 09:10:53;;;;;;;8.93;2.90;;;;;11.50;102206.00;;;;9687638;30;20235;-77
2021/04/02 09:15:54;;;;;;;6.20;2.80;;;;;11.70;102194.00;;;;9695346;30;20636;-78
2021/04/02 09:20:56;;;;;;;6.97;2.90;;;;;13.00;102182.00;;;;9654947;30;20223;-78
2021/04/02 09:26:02;;;;;;;6.70;2.37;;;;;13.40;102192.00;;;;9693580;30;20259;-79
2021/04/02 09:31:26;;;;;;;8.23;3.13;;;;;14.10;102177.00;;;;9706966;30;20259;-79
2021/04/02 09:36:31;;;;;;;8.97;2.77;;;;;14.00;102185.00;;;;9689102;30;20288;-78
2021/04/02 09:41:32;;;;;;;8.13;2.90;;;;;14.00;102188.00;;;;9699138;30;20266;-79
2021/04/02 09:46:36;;;;;;;8.97;2.90;;;;;14.50;102171.00;;;;9658031;30;20216;-79
2021/04/02 09:51:46;;;;;;;8.47;2.80;;;;;14.10;102185.00;;;;9685871;30;20734;-77
2021/04/02 09:56:48;;;;;;;9.53;3.20;;;;;13.40;102194.00;;;;9665483;30;20300;-79
2021/04/02 10:01:50;;;;;;;8.33;3.33;;;;;12.80;102188.00;;;;9686345;30;20215;-78
2021/04/02 10:06:51;;;;;;;4.20;2.73;;;;;12.70;102177.00;;;;9684693;30;20216;-78
2021/04/02 10:11:53;;;;;;;8.33;2.90;;;;;12.80;102165.00;;;;9660423;30;20232;-77
2021/04/02 10:16:54;;;;;;;9.10;3.30;;;;;12.90;102162.00;;;;9681251;30;20222;-77
2021/04/02 10:21:55;;;;;;;6.30;2.67;;;;;13.00;102166.00;;;;9711731;30;20215;-78
2021/04/02 10:26:58;;;;;;;9.10;3.27;;;;;13.00;102167.00;;;;9688116;30;20301;-78
2021/04/02 10:31:59;;;;;;;5.60;2.70;;;;;12.80;102170.00;;;;9692443;30;20298;-78
2021/04/02 10:37:02;;;;;;;6.67;2.63;;;;;12.10;102171.00;;;;9711455;30;20216;-78
2021/04/02 10:42:04;;;;;;;6.23;2.67;;;;;13.00;102159.00;;;;9687803;30;20298;-78
2021/04/02 10:47:08;;;;;;;7.23;2.77;;;;;14.10;102163.00;;;;9703067;30;20215;-77
2021/04/02 10:52:09;;;;;;;6.73;2.50;;;;;15.70;102160.00;;;;9660203;30;20709;-78
2021/04/02 10:57:13;;;;;;;9.57;2.37;;;;;16.70;102162.00;;;;9682793;30;20768;-78
2021/04/02 11:02:15;;;;;;;4.83;2.43;;;;;15.10;102161.00;;;;9667051;30;20223;-77
2021/04/02 11:07:17;;;;;;;11.23;6.10;;;;;14.50;102165.00;;;;9713981;30;20789;-78
2021/04/02 11:12:19;;;;;;;5.20;2.10;;;;;13.70;102172.00;;;;9708514;30;20645;-78
2021/04/02 11:17:21;;;;;;;4.13;2.10;;;;;13.00;102167.00;;;;9661404;30;20300;-77
2021/04/02 11:22:23;;;;;;;7.07;2.53;;;;;14.40;102168.00;;;;9654860;30;20626;-77
2021/04/02 11:27:25;;;;;;;5.13;1.67;;;;;14.60;102159.00;;;;9670281;30;20373;-77
2021/04/02 11:32:26;;;;;;;6.70;2.10;;;;;15.50;102156.00;;;;9680359;30;20230;-77
2021/04/02 11:37:27;;;;;;;4.90;2.20;;;;;17.00;102148.00;;;;9678497;30;20219;-78
2021/04/02 11:42:29;;;;;;;4.00;2.30;;;;;17.40;102156.00;;;;9687877;30;20273;-77
2021/04/02 11:47:30;;;;;;;8.47;2.77;;;;;16.70;102152.00;;;;9660114;30;20286;-77
2021/04/02 11:52:32;;;;;;;6.97;3.40;;;;;16.30;102150.00;;;;9674644;30;20239;-77
2021/04/02 11:57:34;;;;;;;7.70;2.90;;;;;17.00;102149.00;;;;9660306;30;20219;-77
2021/04/02 12:02:35;;;;;;;4.73;2.90;;;;;17.60;102161.00;;;;9653940;30;20216;-77
2021/04/02 12:07:36;;;;;;;7.70;2.77;;;;;16.60;102172.00;;;;9702220;30;20227;-77
2021/04/02 12:12:38;;;;;;;7.63;2.93;;;;;15.70;102157.00;;;;9689305;30;20245;-77
2021/04/02 12:17:39;;;;;;;4.57;2.40;;;;;15.50;102144.00;;;;9689296;30;20211;-78
2021/04/02 12:22:42;;;;;;;5.67;3.30;;;;;15.90;102143.00;;;;9698788;30;20226;-77
2021/04/02 12:27:43;;;;;;;9.10;2.70;;;;;16.60;102144.00;;;;9704634;30;20242;-78
2021/04/02 12:32:45;;;;;;;8.73;3.00;;;;;17.70;102141.00;;;;9685983;30;20255;-78
2021/04/02 12:37:50;;;;;;;7.07;3.07;;;;;18.00;102150.00;;;;9693214;30;20211;-78
2021/04/02 12:42:52;;;;;;;7.83;3.10;;;;;16.90;102141.00;;;;9673203;30;20217;-78
2021/04/02 12:47:54;;;;;;;7.17;3.17;;;;;17.10;102139.00;;;;9703304;30;21109;-78
2021/04/02 12:52:55;;;;;;;6.40;2.73;;;;;16.80;102136.00;;;;9666498;30;20236;-78
2021/04/02 12:57:57;;;;;;;10.33;3.70;;;;;17.00;102128.00;;;;9687448;30;20310;-78
2021/04/02 13:02:59;;;;;;;8.87;3.50;;;;;17.00;102129.00;;;;9691751;30;20325;-78
2021/04/02 13:08:03;;;;;;;6.07;2.93;;;;;17.10;102116.00;;;;9690839;30;20208;-78
2021/04/02 13:13:04;;;;;;;9.03;3.87;;;;;16.70;102117.00;;;;9692799;30;20240;-78
2021/04/02 13:18:06;;;;;;;9.83;3.67;;;;;16.80;102122.00;;;;9695779;30;20274;-78
2021/04/02 13:23:08;;;;;;;9.33;3.43;;;;;17.50;102118.00;;;;9693941;30;20227;-77
2021/04/02 13:28:09;;;;;;;8.93;3.40;;;;;16.90;102111.00;;;;9699054;30;20233;-77
2021/04/02 13:33:10;;;;;;;6.63;3.60;;;;;18.30;102117.00;;;;9695000;30;20255;-77
2021/04/02 13:38:12;;;;;;;6.20;4.00;;;;;17.20;102132.00;;;;9660489;30;20668;-77
2021/04/02 13:43:13;;;;;;;13.03;4.47;;;;;16.90;102121.00;;;;9672604;30;20266;-77
2021/04/02 13:48:15;;;;;;;8.33;4.50;;;;;17.00;102100.00;;;;9678187;30;20628;-77
2021/04/02 13:53:16;;;;;;;12.50;4.53;;;;;17.60;102097.00;;;;9673000;30;20251;-78
2021/04/02 13:58:20;;;;;;;8.43;4.83;;;;;18.90;102105.00;;;;9670232;30;20215;-77
2021/04/02 14:03:21;;;;;;;9.60;5.10;;;;;18.60;102114.00;;;;9698614;30;20215;-78
2021/04/02 14:08:23;;;;;;;12.93;5.20;;;;;18.50;102110.00;;;;9697957;30;20203;-78
2021/04/02 14:13:24;;;;;;;7.93;4.90;;;;;20.20;102098.00;;;;9683994;30;20605;-77
2021/04/02 14:18:29;;;;;;;14.57;5.07;;;;;22.60;102096.00;;;;9684303;30;20251;-78
2021/04/02 14:23:31;;;;;;;7.93;4.53;;;;;23.10;102085.00;;;;9683455;30;20249;-78
2021/04/02 14:28:32;;;;;;;11.47;5.63;;;;;24.20;102097.00;;;;9706202;30;20620;-78
2021/04/02 14:33:34;;;;;;;12.53;5.13;;;;;22.50;102129.00;;;;9669041;30;20220;-77
2021/04/02 14:38:36;;;;;;;7.33;5.13;;;;;23.60;102103.00;;;;9704072;30;20203;-78
2021/04/02 14:43:37;;;;;;;8.27;5.10;;;;;22.00;102115.00;;;;9698669;30;20212;-78
2021/04/02 14:48:38;;;;;;;9.80;5.23;;;;;21.40;102119.00;;;;9687987;30;20270;-78
2021/04/02 14:53:41;;;;;;;9.60;5.53;;;;;20.30;102116.00;;;;9714142;30;20683;-78
2021/04/02 14:58:43;;;;;;;10.37;5.20;;;;;23.80;102086.00;;;;9695692;30;20337;-78
2021/04/02 15:03:48;;;;;;;11.13;5.27;;;;;22.70;102091.00;;;;9696036;30;20196;-78
2021/04/02 15:08:50;;;;;;;15.00;5.97;;;;;21.10;102116.00;;;;9696693;30;20259;-77
2021/04/02 15:13:51;;;;;;;9.53;5.60;;;;;19.10;102133.00;;;;9685245;30;20216;-78
2021/04/02 15:18:52;;;;;;;13.17;5.33;;;;;20.60;102109.00;;;;9664225;30;20228;-77
2021/04/02 15:23:54;;;;;;;13.60;5.30;;;;;20.50;102113.00;;;;9696908;30;20195;-78
2021/04/02 15:28:55;;;;;;;11.33;4.83;;;;;16.30;102116.00;;;;9681649;30;20211;-78
2021/04/02 15:33:57;;;;;;;10.17;4.43;;;;;15.90;102111.00;;;;9684020;30;20227;-78
2021/04/02 15:38:58;;;;;;;10.53;4.80;;;;;15.30;102107.00;;;;9677895;30;20266;-78
2021/04/02 15:43:59;;;;;;;11.07;4.67;;;;;15.20;102097.00;;;;9690001;30;20211;-78
2021/04/02 15:49:03;;;;;;;11.50;4.70;;;;;15.90;102105.00;;;;9686806;30;20199;-78
2021/04/02 15:54:04;;;;;;;11.10;4.20;;;;;15.60;102109.00;;;;9701673;30;20297;-78
2021/04/02 15:59:05;;;;;;;8.53;3.90;;;;;14.10;102109.00;;;;9661919;30;20728;-78
2021/04/02 16:04:07;;;;;;;12.77;4.83;;;;;13.50;102104.00;;;;9691844;30;20215;-77
2021/04/02 16:09:08;;;;;;;12.27;5.07;;;;;13.20;102098.00;;;;9690059;30;20689;-78
2021/04/02 16:14:10;;;;;;;11.50;4.10;;;;;12.70;102099.00;;;;9686040;30;20219;-78
2021/04/02 16:19:11;;;;;;;11.97;4.93;;;;;12.30;102083.00;;;;9682084;30;20203;-78
2021/04/02 16:24:13;;;;;;;14.80;4.70;;;;;12.30;102085.00;;;;9664339;30;20215;-77
2021/04/02 16:29:15;;;;;;;8.90;4.50;;;;;12.00;102098.00;;;;9684565;30;20223;-78
2021/04/02 16:34:16;;;;;;;11.73;4.60;;;;;11.80;102113.00;;;;9664846;30;20363;-78
2021/04/02 16:39:18;;;;;;;12.00;4.27;;;;;11.40;102119.00;;;;9688559;30;20211;-78
2021/04/02 16:44:23;;;;;;;13.93;4.40;;;;;11.10;102118.00;;;;9692878;30;20599;-78
2021/04/02 16:49:24;;;;;;;16.93;4.93;;;;;10.70;102143.00;;;;9664591;30;20680;-78
2021/04/02 16:54:25;;;;;;;13.73;4.83;;;;;10.50;102141.00;;;;9688902;30;20365;-78
2021/04/02 16:59:27;;;;;;;9.53;4.70;;;;;10.60;102145.00;;;;9695078;30;20215;-78
2021/04/02 17:04:29;;;;;;;15.17;4.90;;;;;10.20;102134.00;;;;9689189;30;20213;-77
2021/04/02 17:09:31;;;;;;;14.37;4.37;;;;;10.10;102135.00;;;;9683307;30;20220;-78
2021/04/02 17:14:36;;;;;;;24.73;5.53;;;;;9.90;102146.00;;;;9686405;30;20237;-78
2021/04/02 17:19:38;;;;;;;14.60;5.57;;;;;9.70;102148.00;;;;9667509;30;20226;-78
2021/04/02 17:24:39;;;;;;;13.13;4.93;;;;;9.50;102156.00;;;;9674248;30;20263;-78
2021/04/02 17:29:40;;;;;;;9.10;4.17;;;;;9.30;102162.00;;;;9706601;30;20282;-78
2021/04/02 17:34:42;;;;;;;10.43;4.00;;;;;9.20;102189.00;;;;9684153;30;20216;-78
2021/04/02 17:39:55;;;;;;;12.13;4.37;;;;;9.00;102184.00;;;;9690986;30;20196;-78
2021/04/02 17:44:57;;;;;;;11.07;4.20;;;;;8.90;102179.00;;;;9679595;30;20212;-78
2021/04/02 17:49:58;;;;;;;14.13;4.40;;;;;8.80;102197.00;;;;9688455;30;20223;-77
2021/04/02 17:54:59;;;;;;;8.13;4.13;;;;;8.70;102179.00;;;;9657715;30;20208;-77
2021/04/02 18:00:07;;;;;;;10.13;5.13;;;;;8.60;102185.00;;;;9704217;30;20207;-76
2021/04/02 18:05:09;;;;;;;13.43;4.53;;;;;8.50;102191.00;;;;9664147;30;20223;-77
2021/04/02 18:10:29;;;;;;;9.53;4.40;;;;;8.40;102194.00;;;;9657046;30;20215;-78
2021/04/02 18:15:31;;;;;;;11.20;4.07;;;;;8.30;102193.00;;;;9707917;30;20201;-78
2021/04/02 18:20:32;;;;;;;12.57;3.87;;;;;8.20;102194.00;;;;9687154;30;20204;-77
2021/04/02 18:25:39;;;;;;;9.27;2.67;;;;;8.10;102192.00;;;;9694216;30;20230;-78
2021/04/02 18:30:41;;;;;;;9.03;2.83;;;;;8.10;102196.00;;;;9684860;30;20220;-78
2021/04/02 18:35:43;;;;;;;8.13;2.63;;;;;8.00;102197.00;;;;9684480;30;20247;-78
2021/04/02 18:40:45;;;;;;;6.43;2.77;;;;;8.00;102203.00;;;;9676052;30;20195;-77
2021/04/02 18:45:47;;;;;;;7.47;2.60;;;;;8.00;102207.00;;;;9684749;30;20628;-78
2021/04/02 18:50:48;;;;;;;5.07;2.50;;;;;7.90;102201.00;;;;9672576;30;20207;-78
2021/04/02 18:55:50;;;;;;;5.00;2.77;;;;;7.90;102208.00;;;;9669737;30;20203;-78
2021/04/02 19:00:51;;;;;;;7.27;3.10;;;;;7.90;102210.00;;;;9676399;30;20653;-78
2021/04/02 19:05:53;;;;;;;9.23;2.97;;;;;7.90;102204.00;;;;9685479;30;20207;-78
2021/04/02 19:10:54;;;;;;;7.37;2.70;;;;;7.90;102202.00;;;;9678529;30;20273;-78
2021/04/02 19:15:55;;;;;;;6.30;3.40;;;;;7.90;102201.00;;;;9689897;30;20211;-77
2021/04/02 19:20:57;;;;;;;7.43;2.53;;;;;7.80;102198.00;;;;9665434;30;20212;-78
2021/04/02 19:26:03;;;;;;;7.03;2.60;;;;;7.80;102208.00;;;;9661810;30;20227;-78
2021/04/02 19:31:04;;;;;;;5.50;2.37;;;;;7.70;102215.00;;;;9676200;30;20231;-78
2021/04/02 19:36:08;;;;;;;8.57;2.63;;;;;7.70;102225.00;;;;9681105;30;20243;-78
2021/04/02 19:41:11;;;;;;;6.43;2.20;;;;;7.60;102214.00;;;;9693377;30;20208;-78
2021/04/02 19:46:12;;;;;;;4.40;2.40;;;;;7.60;102232.00;;;;9677608;30;20243;-78
2021/04/02 19:51:14;;;;;;;7.70;2.50;;;;;7.60;102234.00;;;;9684403;30;20342;-78
2021/04/02 19:56:15;;;;;;;7.83;2.40;;;;;7.60;102241.00;;;;9687544;30;20258;-78
2021/04/02 20:01:17;;;;;;;5.37;2.43;;;;;7.50;102231.00;;;;9690210;30;20234;-78
2021/04/02 20:06:18;;;;;;;13.37;2.97;;;;;7.50;102232.00;;;;9692376;30;20204;-78
2021/04/02 20:11:19;;;;;;;9.40;2.80;;;;;7.50;102238.00;;;;9684433;30;20269;-78
2021/04/02 20:16:21;;;;;;;6.13;2.60;;;;;7.50;102235.00;;;;9675363;30;20231;-78
2021/04/02 20:21:23;;;;;;;8.10;3.23;;;;;7.50;102234.00;;;;9675115;30;20192;-78
2021/04/02 20:26:38;;;;;;;8.47;2.90;;;;;7.50;102234.00;;;;9663546;30;20223;-78
2021/04/02 20:31:40;;;;;;;7.63;2.60;;;;;7.40;102236.00;;;;9695962;30;20298;-78
2021/04/02 20:36:42;;;;;;;10.87;2.87;;;;;7.40;102231.00;;;;9681597;30;20234;-78
2021/04/02 20:41:43;;;;;;;6.73;2.80;;;;;7.40;102231.00;;;;9674532;30;20254;-79
2021/04/02 20:46:44;;;;;;;8.70;3.13;;;;;7.40;102237.00;;;;9701090;30;20204;-78
2021/04/02 20:51:49;;;;;;;8.33;3.00;;;;;7.30;102244.00;;;;9691622;30;20251;-79
2021/04/02 20:56:50;;;;;;;10.73;2.70;;;;;7.40;102229.00;;;;9668258;30;20214;-79
2021/04/02 21:01:52;;;;;;;11.30;5.20;;;;;7.40;102236.00;;;;9678943;30;20196;-79
2021/04/02 21:06:53;;;;;;;6.47;3.23;;;;;7.50;102239.00;;;;9717222;30;20197;-79
2021/04/02 21:11:55;;;;;;;10.00;3.40;;;;;7.30;102223.00;;;;9683046;30;20284;-79
2021/04/02 21:16:56;;;;;;;7.63;3.53;;;;;7.20;102216.00;;;;9669396;30;20238;-79
2021/04/02 21:21:58;;;;;;;10.17;4.60;;;;;7.20;102224.00;;;;9709404;30;20204;-79
2021/04/02 21:26:59;;;;;;;10.07;4.17;;;;;7.20;102214.00;;;;9703627;30;20235;-79
2021/04/02 21:32:02;;;;;;;11.53;4.63;;;;;7.20;102209.00;;;;9675434;30;20726;-79
2021/04/02 21:37:04;;;;;;;8.93;4.00;;;;;7.20;102207.00;;;;9680098;30;20259;-79
2021/04/02 21:42:06;;;;;;;11.10;4.20;;;;;7.20;102224.00;;;;9708539;30;20270;-79
2021/04/02 21:47:07;;;;;;;14.03;4.37;;;;;7.20;102219.00;;;;9678272;30;20219;-79
2021/04/02 21:52:09;;;;;;;10.00;4.03;;;;;7.20;102235.00;;;;9695542;30;20220;-79
2021/04/02 21:57:10;;;;;;;12.13;4.93;;;;;7.20;102228.00;;;;9668009;30;20204;-79
2021/04/02 22:02:12;;;;;;;12.40;4.70;;;;;7.10;102230.00;;;;9662516;30;20286;-79
2021/04/02 22:07:13;;;;;;;8.60;4.43;;;;;7.20;102231.00;;;;9705881;30;20210;-78
2021/04/02 22:12:15;;;;;;;10.47;5.10;;;;;7.20;102237.00;;;;9685534;30;20226;-79
2021/04/02 22:17:16;;;;;;;14.00;4.87;;;;;7.20;102227.00;;;;9664067;30;20211;-79
2021/04/02 22:22:18;;;;;;;13.90;4.73;;;;;7.10;102234.00;;;;9681282;30;20223;-79
2021/04/02 22:27:29;;;;;;;10.50;4.30;;;;;7.10;102233.00;;;;9666892;30;20259;-79
2021/04/02 22:32:31;;;;;;;10.77;4.97;;;;;7.10;102220.00;;;;9671844;30;20592;-79
2021/04/02 22:37:32;;;;;;;14.93;5.13;;;;;7.00;102229.00;;;;9682695;30;20214;-79
2021/04/02 22:42:33;;;;;;;12.40;4.57;;;;;7.00;102226.00;;;;9693154;30;20196;-79
2021/04/02 22:47:35;;;;;;;12.23;4.27;;;;;6.90;102232.00;;;;9673220;30;20208;-79
2021/04/02 22:52:37;;;;;;;14.70;4.83;;;;;6.80;102235.00;;;;9676380;30;20220;-79
2021/04/02 22:57:39;;;;;;;14.57;5.07;;;;;6.70;102235.00;;;;9690170;30;20211;-79
2021/04/02 23:02:40;;;;;;;14.40;5.53;;;;;6.50;102244.00;;;;9663079;30;20207;-79
2021/04/02 23:07:42;;;;;;;12.03;5.10;;;;;6.50;102236.00;;;;9670767;30;20215;-79
2021/04/02 23:12:43;;;;;;;16.33;6.33;;;;;6.60;102239.00;;;;9676932;30;20262;-79
2021/04/02 23:17:44;;;;;;;21.57;6.50;;;;;6.50;102239.00;;;;9686238;30;20212;-79
2021/04/02 23:22:46;;;;;;;16.60;8.00;;;;;6.40;102236.00;;;;9695234;30;20205;-78
2021/04/02 23:27:49;;;;;;;18.03;6.30;;;;;6.20;102236.00;;;;9688045;30;20242;-79
2021/04/02 23:32:54;;;;;;;17.97;7.40;;;;;6.10;102232.00;;;;9693453;30;20245;-78
2021/04/02 23:37:56;;;;;;;20.37;7.43;;;;;5.90;102234.00;;;;9672593;30;20215;-79
2021/04/02 23:43:01;;;;;;;16.70;7.67;;;;;5.80;102230.00;;;;9691839;30;20665;-79
2021/04/02 23:48:03;;;;;;;16.43;7.20;;;;;5.70;102212.00;;;;9680901;30;20204;-78
2021/04/02 23:53:05;;;;;;;17.37;7.43;;;;;5.60;102225.00;;;;9686283;30;20243;-78
2021/04/02 23:58:07;;;;;;;19.23;7.63;;;;;5.50;102216.00;;;;9674609;30;20207;-79
